Terminal Aerodrome Forecast
Issued by NWS

Home | Current Version | Previous Version | Text Only | Print | Product List | Glossary On
Versions: 1 2 3 4 5 6 7 8 9 10 11 12 13 14 15 16 17 18 19
000
FTUS43 KSGF 241700
TAFJLN
TAF
KJLN 241720Z 2418/2518 23010KT P6SM SKC
     FM250300 22013KT P6SM BKN100 WS020/28040KT
     FM250700 25011KT P6SM VCSH OVC050
      TEMPO 2508/2512 5SM -SHRA BR BKN035 OVC050
     FM251200 27012KT P6SM BKN030
     FM251600 30019G30KT P6SM BKN030=

USA.gov is the U.S. government's official web portal to all federal, state and local government web resources and services.